REDSK01 EHLW-EHGR
Flight info
| Callsign | REDSK01 |
|---|---|
| Flight time | 1h 8m |
| Altitude | 2000 |
| Route | LWD DCT 5300N00552E DCT 5233N00693E DCT GLVVII DCT 5152N00525E DCT EHGRNE |
| Aircraft | H64/M-DFILOTUVY/SC |
Departure
| Time | 2026-05-05 14:01 |
|---|---|
| Airport | Leeuwarden Air Base (EHLW) |
Arrival
| Time | 2026-05-05 15:09 |
|---|---|
| Airport | Gilze Rijen Air Base (EHGR) |
| Time | Latitude | Longitude | Altitude | Speed | Heading |
|---|---|---|---|---|---|
| 2026-05-05 13:48 | 53.21879 | 5.76211 | -5 ft | 0 kts | 184° |
| 2026-05-05 13:57 | 53.21860 | 5.76197 | -5 ft | 4 kts | 254° |
| 2026-05-05 13:57 | 53.21858 | 5.76175 | -5 ft | 1 kts | 269° |
| 2026-05-05 13:58 | 53.21858 | 5.76169 | -5 ft | 0 kts | 274° |
| 2026-05-05 13:58 | 53.21857 | 5.76162 | 9 ft | 1 kts | 278° |
| 2026-05-05 13:58 | 53.21857 | 5.76161 | 2 ft | 1 kts | 281° |
| 2026-05-05 13:58 | 53.21858 | 5.76161 | 7 ft | 3 kts | 347° |
| 2026-05-05 13:59 | 53.21863 | 5.76089 | 10 ft | 10 kts | 283° |
| 2026-05-05 13:59 | 53.21890 | 5.75989 | 71 ft | 16 kts | 350° |
| 2026-05-05 14:00 | 53.22404 | 5.76055 | 141 ft | 46 kts | 341° |
| 2026-05-05 14:00 | 53.22573 | 5.75895 | 100 ft | 39 kts | 323° |
| 2026-05-05 14:00 | 53.22731 | 5.75799 | 26 ft | 9 kts | 57° |
| 2026-05-05 14:00 | 53.22870 | 5.76144 | 58 ft | 69 kts | 53° |
| 2026-05-05 14:01 | 53.23169 | 5.76943 | 250 ft | 87 kts | 57° |
| 2026-05-05 14:01 | 53.23555 | 5.77676 | 613 ft | 85 kts | 18° |
| 2026-05-05 14:01 | 53.23850 | 5.76811 | 599 ft | 138 kts | 248° |
| 2026-05-05 14:01 | 53.23314 | 5.75354 | 523 ft | 148 kts | 239° |
| 2026-05-05 14:02 | 53.22794 | 5.73905 | 583 ft | 144 kts | 241° |
| 2026-05-05 14:02 | 53.22242 | 5.72538 | 632 ft | 141 kts | 210° |
| 2026-05-05 14:02 | 53.21798 | 5.73177 | 315 ft | 123 kts | 67° |
| 2026-05-05 14:02 | 53.21897 | 5.74723 | 63 ft | 142 kts | 85° |
| 2026-05-05 14:03 | 53.21836 | 5.76347 | 37 ft | 137 kts | 90° |
| 2026-05-05 14:03 | 53.21414 | 5.77214 | 591 ft | 107 kts | 196° |
| 2026-05-05 14:03 | 53.21223 | 5.76214 | 630 ft | 104 kts | 263° |
| 2026-05-05 14:03 | 53.20588 | 5.75489 | 556 ft | 127 kts | 181° |
| 2026-05-05 14:04 | 53.19678 | 5.75309 | 654 ft | 138 kts | 189° |
| 2026-05-05 14:04 | 53.18740 | 5.74792 | 882 ft | 138 kts | 187° |
| 2026-05-05 14:04 | 53.17829 | 5.75087 | 985 ft | 134 kts | 139° |
| 2026-05-05 14:04 | 53.17091 | 5.76070 | 1008 ft | 140 kts | 130° |
| 2026-05-05 14:05 | 53.16319 | 5.77123 | 1001 ft | 143 kts | 126° |
| 2026-05-05 14:05 | 53.15746 | 5.78399 | 1096 ft | 139 kts | 123° |
| 2026-05-05 14:05 | 53.14886 | 5.79298 | 1005 ft | 156 kts | 152° |
| 2026-05-05 14:05 | 53.13820 | 5.79722 | 1025 ft | 155 kts | 159° |
| 2026-05-05 14:06 | 53.12752 | 5.80106 | 987 ft | 159 kts | 161° |
| 2026-05-05 14:06 | 53.11667 | 5.80516 | 970 ft | 161 kts | 160° |
| 2026-05-05 14:06 | 53.10580 | 5.80972 | 1002 ft | 161 kts | 159° |
| 2026-05-05 14:06 | 53.09500 | 5.81414 | 1032 ft | 158 kts | 159° |
| 2026-05-05 14:07 | 53.08434 | 5.81850 | 1027 ft | 158 kts | 160° |
| 2026-05-05 14:07 | 53.07387 | 5.82284 | 1128 ft | 149 kts | 155° |
| 2026-05-05 14:07 | 53.06382 | 5.82844 | 1110 ft | 155 kts | 154° |
| 2026-05-05 14:07 | 53.05315 | 5.83340 | 1012 ft | 165 kts | 160° |
| 2026-05-05 14:08 | 53.04189 | 5.83710 | 1024 ft | 164 kts | 162° |
| 2026-05-05 14:08 | 53.03072 | 5.84087 | 1017 ft | 162 kts | 161° |
| 2026-05-05 14:08 | 53.02029 | 5.84503 | 1089 ft | 151 kts | 153° |
| 2026-05-05 14:08 | 53.01000 | 5.84920 | 1047 ft | 149 kts | 162° |
| 2026-05-05 14:09 | 53.00073 | 5.85075 | 971 ft | 115 kts | 171° |
| 2026-05-05 14:09 | 52.99343 | 5.85590 | 1087 ft | 117 kts | 130° |
| 2026-05-05 14:09 | 52.98823 | 5.86769 | 1133 ft | 132 kts | 104° |
| 2026-05-05 14:09 | 52.98657 | 5.88265 | 1253 ft | 140 kts | 94° |
| 2026-05-05 14:10 | 52.98412 | 5.89933 | 1136 ft | 156 kts | 102° |
| 2026-05-05 14:10 | 52.97853 | 5.91501 | 1120 ft | 165 kts | 129° |
| 2026-05-05 14:10 | 52.96916 | 5.92654 | 1082 ft | 167 kts | 137° |
| 2026-05-05 14:10 | 52.95886 | 5.93606 | 970 ft | 176 kts | 151° |
| 2026-05-05 14:11 | 52.94789 | 5.94488 | 918 ft | 172 kts | 141° |
| 2026-05-05 14:11 | 52.93766 | 5.95479 | 962 ft | 171 kts | 146° |
| 2026-05-05 14:11 | 52.92666 | 5.96204 | 1071 ft | 168 kts | 154° |
| 2026-05-05 14:11 | 52.91664 | 5.97077 | 1130 ft | 162 kts | 132° |
| 2026-05-05 14:12 | 52.91014 | 5.98564 | 1167 ft | 159 kts | 114° |
| 2026-05-05 14:12 | 52.90494 | 6.00181 | 1250 ft | 159 kts | 118° |
| 2026-05-05 14:12 | 52.89598 | 6.01327 | 1272 ft | 168 kts | 145° |
| 2026-05-05 14:12 | 52.88520 | 6.02119 | 1277 ft | 171 kts | 153° |
| 2026-05-05 14:13 | 52.87325 | 6.02526 | 1174 ft | 183 kts | 170° |
| 2026-05-05 14:13 | 52.86097 | 6.02897 | 1219 ft | 174 kts | 150° |
| 2026-05-05 14:13 | 52.85072 | 6.03930 | 1196 ft | 174 kts | 141° |
| 2026-05-05 14:13 | 52.84023 | 6.04943 | 1193 ft | 174 kts | 144° |
| 2026-05-05 14:14 | 52.82963 | 6.05883 | 1248 ft | 172 kts | 145° |
| 2026-05-05 14:14 | 52.81940 | 6.06830 | 1372 ft | 166 kts | 139° |
| 2026-05-05 14:14 | 52.81086 | 6.08052 | 1499 ft | 159 kts | 118° |
| 2026-05-05 14:14 | 52.80651 | 6.09674 | 1605 ft | 154 kts | 99° |
| 2026-05-05 14:15 | 52.80334 | 6.11406 | 1450 ft | 164 kts | 101° |
| 2026-05-05 14:15 | 52.79938 | 6.13222 | 1248 ft | 171 kts | 103° |
| 2026-05-05 14:15 | 52.79489 | 6.15038 | 1091 ft | 173 kts | 118° |
| 2026-05-05 14:15 | 52.78535 | 6.16251 | 970 ft | 177 kts | 146° |
| 2026-05-05 14:16 | 52.77739 | 6.17388 | 1226 ft | 129 kts | 93° |
| 2026-05-05 14:16 | 52.78240 | 6.18353 | 1185 ft | 128 kts | 4° |
| 2026-05-05 14:16 | 52.78861 | 6.17358 | 1145 ft | 147 kts | 276° |
| 2026-05-05 14:16 | 52.78232 | 6.16183 | 1145 ft | 146 kts | 180° |
| 2026-05-05 14:17 | 52.77276 | 6.16542 | 1173 ft | 144 kts | 153° |
| 2026-05-05 14:17 | 52.76399 | 6.17277 | 1180 ft | 147 kts | 153° |
| 2026-05-05 14:17 | 52.75371 | 6.17741 | 1123 ft | 154 kts | 156° |
| 2026-05-05 14:17 | 52.74336 | 6.18300 | 990 ft | 163 kts | 152° |
| 2026-05-05 14:18 | 52.73270 | 6.18966 | 934 ft | 164 kts | 152° |
| 2026-05-05 14:18 | 52.72198 | 6.19639 | 827 ft | 164 kts | 148° |
| 2026-05-05 14:18 | 52.71313 | 6.20681 | 967 ft | 148 kts | 129° |
| 2026-05-05 14:18 | 52.70326 | 6.21006 | 1043 ft | 158 kts | 184° |
| 2026-05-05 14:19 | 52.69209 | 6.20671 | 965 ft | 167 kts | 188° |
| 2026-05-05 14:19 | 52.68151 | 6.19905 | 897 ft | 171 kts | 218° |
| 2026-05-05 14:19 | 52.67105 | 6.19411 | 966 ft | 160 kts | 170° |
| 2026-05-05 14:19 | 52.65974 | 6.19556 | 942 ft | 163 kts | 167° |
| 2026-05-05 14:20 | 52.64860 | 6.19778 | 1000 ft | 161 kts | 166° |
| 2026-05-05 14:20 | 52.63734 | 6.19989 | 914 ft | 164 kts | 165° |
| 2026-05-05 14:20 | 52.62615 | 6.20179 | 959 ft | 161 kts | 167° |
| 2026-05-05 14:20 | 52.61485 | 6.20273 | 929 ft | 165 kts | 175° |
| 2026-05-05 14:21 | 52.60343 | 6.20067 | 926 ft | 166 kts | 184° |
| 2026-05-05 14:21 | 52.59195 | 6.19624 | 809 ft | 173 kts | 192° |
| 2026-05-05 14:21 | 52.58041 | 6.18952 | 656 ft | 174 kts | 191° |
| 2026-05-05 14:21 | 52.56886 | 6.19066 | 638 ft | 165 kts | 161° |
| 2026-05-05 14:22 | 52.55793 | 6.19509 | 643 ft | 159 kts | 159° |
| 2026-05-05 14:22 | 52.54751 | 6.20023 | 668 ft | 156 kts | 160° |
| 2026-05-05 14:22 | 52.53690 | 6.20328 | 689 ft | 155 kts | 167° |
| 2026-05-05 14:22 | 52.52591 | 6.20357 | 585 ft | 160 kts | 179° |
| 2026-05-05 14:23 | 52.51520 | 6.19924 | 519 ft | 162 kts | 200° |
| 2026-05-05 14:23 | 52.50512 | 6.19139 | 516 ft | 159 kts | 202° |
| 2026-05-05 14:23 | 52.49471 | 6.18824 | 554 ft | 150 kts | 168° |
| 2026-05-05 14:23 | 52.48420 | 6.18702 | 527 ft | 156 kts | 206° |
| 2026-05-05 14:24 | 52.47832 | 6.17222 | 457 ft | 160 kts | 246° |
| 2026-05-05 14:24 | 52.47390 | 6.15528 | 429 ft | 162 kts | 247° |
| 2026-05-05 14:24 | 52.46965 | 6.13827 | 431 ft | 158 kts | 249° |
| 2026-05-05 14:24 | 52.46624 | 6.12136 | 437 ft | 158 kts | 254° |
| 2026-05-05 14:25 | 52.46380 | 6.10384 | 478 ft | 154 kts | 250° |
| 2026-05-05 14:25 | 52.45656 | 6.09118 | 472 ft | 155 kts | 212° |
| 2026-05-05 14:25 | 52.45145 | 6.07928 | 341 ft | 136 kts | 292° |
| 2026-05-05 14:25 | 52.45181 | 6.06361 | 333 ft | 138 kts | 268° |
| 2026-05-05 14:26 | 52.44922 | 6.04941 | 373 ft | 129 kts | 214° |
| 2026-05-05 14:26 | 52.44086 | 6.04571 | 358 ft | 123 kts | 187° |
| 2026-05-05 14:26 | 52.43243 | 6.04186 | 228 ft | 128 kts | 195° |
| 2026-05-05 14:26 | 52.42422 | 6.03712 | 196 ft | 125 kts | 196° |
| 2026-05-05 14:27 | 52.41640 | 6.03166 | 212 ft | 119 kts | 209° |
| 2026-05-05 14:27 | 52.41223 | 6.02584 | 204 ft | 118 kts | 220° |
| 2026-05-05 14:27 | 52.40579 | 6.01764 | 192 ft | 116 kts | 217° |
| 2026-05-05 14:27 | 52.40065 | 6.00711 | 94 ft | 122 kts | 244° |
| 2026-05-05 14:28 | 52.39700 | 6.00779 | 412 ft | 77 kts | 63° |
| 2026-05-05 14:28 | 52.40037 | 6.01148 | 120 ft | 98 kts | 351° |
| 2026-05-05 14:28 | 52.40156 | 6.00885 | 187 ft | 66 kts | 178° |
| 2026-05-05 14:28 | 52.39922 | 6.00889 | 138 ft | 9 kts | 89° |
| 2026-05-05 14:29 | 52.39867 | 6.00982 | 169 ft | 9 kts | 98° |
| 2026-05-05 14:29 | 52.39807 | 6.01034 | 168 ft | 23 kts | 252° |
| 2026-05-05 14:29 | 52.39939 | 6.00882 | 241 ft | 42 kts | 340° |
| 2026-05-05 14:29 | 52.39913 | 6.00218 | 293 ft | 88 kts | 248° |
| 2026-05-05 14:30 | 52.39454 | 5.99457 | 349 ft | 105 kts | 193° |
| 2026-05-05 14:30 | 52.38711 | 5.98952 | 176 ft | 120 kts | 196° |
| 2026-05-05 14:30 | 52.37946 | 5.98921 | 140 ft | 110 kts | 167° |
| 2026-05-05 14:30 | 52.37271 | 5.98654 | 146 ft | 97 kts | 247° |
| 2026-05-05 14:31 | 52.37086 | 5.97586 | 137 ft | 98 kts | 259° |
| 2026-05-05 14:31 | 52.36981 | 5.96493 | 168 ft | 99 kts | 267° |
| 2026-05-05 14:31 | 52.37005 | 5.95373 | 156 ft | 97 kts | 291° |
| 2026-05-05 14:31 | 52.37180 | 5.94331 | 195 ft | 98 kts | 277° |
| 2026-05-05 14:32 | 52.36805 | 5.93407 | 175 ft | 103 kts | 227° |
| 2026-05-05 14:32 | 52.36577 | 5.92289 | 196 ft | 113 kts | 278° |
| 2026-05-05 14:32 | 52.36643 | 5.90936 | 239 ft | 119 kts | 247° |
| 2026-05-05 14:32 | 52.35899 | 5.90396 | 215 ft | 132 kts | 194° |
| 2026-05-05 14:33 | 52.35002 | 5.89842 | 178 ft | 142 kts | 200° |
| 2026-05-05 14:33 | 52.34170 | 5.89020 | 210 ft | 139 kts | 244° |
| 2026-05-05 14:33 | 52.33753 | 5.87607 | 192 ft | 140 kts | 241° |
| 2026-05-05 14:33 | 52.33263 | 5.86246 | 226 ft | 140 kts | 237° |
| 2026-05-05 14:34 | 52.32718 | 5.84892 | 223 ft | 143 kts | 238° |
| 2026-05-05 14:34 | 52.32366 | 5.83595 | 585 ft | 117 kts | 272° |
| 2026-05-05 14:34 | 52.32688 | 5.82302 | 485 ft | 128 kts | 296° |
| 2026-05-05 14:34 | 52.32714 | 5.80909 | 349 ft | 141 kts | 222° |
| 2026-05-05 14:35 | 52.31824 | 5.80032 | 169 ft | 151 kts | 211° |
| 2026-05-05 14:35 | 52.30922 | 5.79226 | 201 ft | 147 kts | 207° |
| 2026-05-05 14:35 | 52.30223 | 5.78100 | 330 ft | 137 kts | 236° |
| 2026-05-05 14:35 | 52.29586 | 5.77297 | 705 ft | 111 kts | 177° |
| 2026-05-05 14:36 | 52.28887 | 5.78039 | 492 ft | 132 kts | 130° |
| 2026-05-05 14:36 | 52.27980 | 5.78284 | 464 ft | 145 kts | 191° |
| 2026-05-05 14:36 | 52.27320 | 5.77146 | 449 ft | 142 kts | 249° |
| 2026-05-05 14:36 | 52.27038 | 5.75642 | 628 ft | 134 kts | 249° |
| 2026-05-05 14:37 | 52.26593 | 5.74220 | 352 ft | 149 kts | 243° |
| 2026-05-05 14:37 | 52.26045 | 5.72748 | 171 ft | 147 kts | 220° |
| 2026-05-05 14:37 | 52.25381 | 5.72919 | 233 ft | 91 kts | 79° |
| 2026-05-05 14:37 | 52.25847 | 5.73193 | 202 ft | 68 kts | 344° |
| 2026-05-05 14:38 | 52.25852 | 5.72955 | 138 ft | 5 kts | 277° |
| 2026-05-05 14:38 | 52.25855 | 5.72953 | 122 ft | 1 kts | 276° |
| 2026-05-05 14:38 | 52.25854 | 5.72952 | 138 ft | 0 kts | 271° |
| 2026-05-05 14:38 | 52.25859 | 5.72956 | 155 ft | 1 kts | 274° |
| 2026-05-05 14:39 | 52.25864 | 5.72958 | 175 ft | 2 kts | 276° |
| 2026-05-05 14:39 | 52.25918 | 5.72733 | 171 ft | 35 kts | 295° |
| 2026-05-05 14:39 | 52.26055 | 5.72308 | 170 ft | 52 kts | 294° |
| 2026-05-05 14:39 | 52.26184 | 5.71792 | 148 ft | 45 kts | 264° |
| 2026-05-05 14:40 | 52.26045 | 5.71716 | 149 ft | 30 kts | 143° |
| 2026-05-05 14:40 | 52.25784 | 5.71610 | 156 ft | 43 kts | 191° |
| 2026-05-05 14:40 | 52.25493 | 5.71681 | 160 ft | 42 kts | 146° |
| 2026-05-05 14:40 | 52.25283 | 5.72132 | 128 ft | 62 kts | 107° |
| 2026-05-05 14:41 | 52.25083 | 5.72866 | 138 ft | 78 kts | 107° |
| 2026-05-05 14:41 | 52.24621 | 5.73175 | 218 ft | 97 kts | 204° |
| 2026-05-05 14:41 | 52.23972 | 5.72571 | 279 ft | 124 kts | 211° |
| 2026-05-05 14:41 | 52.23102 | 5.71995 | 225 ft | 143 kts | 193° |
| 2026-05-05 14:42 | 52.22140 | 5.71543 | 315 ft | 146 kts | 198° |
| 2026-05-05 14:42 | 52.21124 | 5.71254 | 255 ft | 154 kts | 174° |
| 2026-05-05 14:42 | 52.20053 | 5.71317 | 311 ft | 150 kts | 154° |
| 2026-05-05 14:42 | 52.19905 | 5.72281 | 525 ft | 80 kts | 68° |
| 2026-05-05 14:43 | 52.20027 | 5.73165 | 463 ft | 78 kts | 70° |
| 2026-05-05 14:43 | 52.19753 | 5.73776 | 312 ft | 100 kts | 206° |
| 2026-05-05 14:43 | 52.19590 | 5.72779 | 260 ft | 94 kts | 279° |
| 2026-05-05 14:43 | 52.19811 | 5.72145 | 287 ft | 66 kts | 23° |
| 2026-05-05 14:44 | 52.19962 | 5.72780 | 246 ft | 44 kts | 61° |
| 2026-05-05 14:44 | 52.20027 | 5.73011 | 95 ft | 6 kts | 71° |
| 2026-05-05 14:44 | 52.20032 | 5.73077 | 97 ft | 3 kts | 82° |
| 2026-05-05 14:44 | 52.20023 | 5.73128 | 160 ft | 23 kts | 86° |
| 2026-05-05 14:45 | 52.19776 | 5.73319 | 210 ft | 79 kts | 209° |
| 2026-05-05 14:45 | 52.19327 | 5.72452 | 204 ft | 114 kts | 242° |
| 2026-05-05 14:45 | 52.18934 | 5.71204 | 249 ft | 130 kts | 245° |
| 2026-05-05 14:45 | 52.18404 | 5.69962 | 373 ft | 134 kts | 217° |
| 2026-05-05 14:46 | 52.17566 | 5.70176 | 448 ft | 128 kts | 124° |
| 2026-05-05 14:46 | 52.16808 | 5.70600 | 467 ft | 134 kts | 187° |
| 2026-05-05 14:46 | 52.15991 | 5.71136 | 404 ft | 140 kts | 118° |
| 2026-05-05 14:46 | 52.15440 | 5.72453 | 405 ft | 147 kts | 140° |
| 2026-05-05 14:47 | 52.14494 | 5.72498 | 410 ft | 151 kts | 209° |
| 2026-05-05 14:47 | 52.13607 | 5.71488 | 328 ft | 158 kts | 217° |
| 2026-05-05 14:47 | 52.12740 | 5.70397 | 436 ft | 155 kts | 219° |
| 2026-05-05 14:47 | 52.12073 | 5.69003 | 253 ft | 165 kts | 237° |
| 2026-05-05 14:48 | 52.11402 | 5.67521 | 310 ft | 159 kts | 230° |
| 2026-05-05 14:48 | 52.10717 | 5.66156 | 385 ft | 156 kts | 229° |
| 2026-05-05 14:48 | 52.10007 | 5.64801 | 416 ft | 157 kts | 226° |
| 2026-05-05 14:48 | 52.09254 | 5.63560 | 590 ft | 151 kts | 228° |
| 2026-05-05 14:49 | 52.08592 | 5.62306 | 858 ft | 143 kts | 231° |
| 2026-05-05 14:49 | 52.08006 | 5.60966 | 1031 ft | 147 kts | 239° |
| 2026-05-05 14:49 | 52.07542 | 5.59466 | 1174 ft | 149 kts | 248° |
| 2026-05-05 14:49 | 52.06917 | 5.58162 | 1286 ft | 153 kts | 195° |
| 2026-05-05 14:50 | 52.05832 | 5.58344 | 1282 ft | 160 kts | 165° |
| 2026-05-05 14:50 | 52.04716 | 5.58649 | 1284 ft | 164 kts | 167° |
| 2026-05-05 14:50 | 52.03595 | 5.59079 | 1250 ft | 169 kts | 160° |
| 2026-05-05 14:50 | 52.02433 | 5.59520 | 1168 ft | 172 kts | 163° |
| 2026-05-05 14:51 | 52.01258 | 5.59804 | 1117 ft | 172 kts | 172° |
| 2026-05-05 14:51 | 52.00112 | 5.59783 | 1373 ft | 155 kts | 182° |
| 2026-05-05 14:51 | 51.99055 | 5.59856 | 1510 ft | 152 kts | 152° |
| 2026-05-05 14:51 | 51.98435 | 5.61163 | 1470 ft | 151 kts | 103° |
| 2026-05-05 14:52 | 51.98283 | 5.62887 | 1337 ft | 159 kts | 89° |
| 2026-05-05 14:52 | 51.98141 | 5.64698 | 1201 ft | 165 kts | 93° |
| 2026-05-05 14:52 | 51.97897 | 5.66508 | 1134 ft | 162 kts | 99° |
| 2026-05-05 14:52 | 51.97146 | 5.67753 | 1086 ft | 171 kts | 163° |
| 2026-05-05 14:53 | 51.96116 | 5.66970 | 834 ft | 176 kts | 242° |
| 2026-05-05 14:53 | 51.95909 | 5.65095 | 837 ft | 168 kts | 251° |
| 2026-05-05 14:53 | 51.95045 | 5.63854 | 824 ft | 170 kts | 211° |
| 2026-05-05 14:53 | 51.94087 | 5.62726 | 826 ft | 170 kts | 218° |
| 2026-05-05 14:54 | 51.93199 | 5.61427 | 787 ft | 173 kts | 225° |
| 2026-05-05 14:54 | 51.92389 | 5.60013 | 828 ft | 172 kts | 227° |
| 2026-05-05 14:54 | 51.91583 | 5.58593 | 896 ft | 170 kts | 226° |
| 2026-05-05 14:54 | 51.90820 | 5.57109 | 909 ft | 166 kts | 226° |
| 2026-05-05 14:55 | 51.90143 | 5.55593 | 813 ft | 174 kts | 242° |
| 2026-05-05 14:55 | 51.89652 | 5.53707 | 521 ft | 185 kts | 249° |
| 2026-05-05 14:55 | 51.89240 | 5.51702 | 246 ft | 188 kts | 253° |
| 2026-05-05 14:55 | 51.88945 | 5.49703 | 175 ft | 175 kts | 259° |
| 2026-05-05 14:56 | 51.88889 | 5.47804 | 152 ft | 162 kts | 272° |
| 2026-05-05 14:56 | 51.88912 | 5.46012 | 110 ft | 159 kts | 263° |
| 2026-05-05 14:56 | 51.88428 | 5.44491 | 153 ft | 154 kts | 222° |
| 2026-05-05 14:56 | 51.87606 | 5.43334 | 42 ft | 159 kts | 219° |
| 2026-05-05 14:57 | 51.86736 | 5.42351 | 155 ft | 151 kts | 202° |
| 2026-05-05 14:57 | 51.85771 | 5.41729 | 204 ft | 150 kts | 199° |
| 2026-05-05 14:57 | 51.84787 | 5.41074 | 155 ft | 154 kts | 199° |
| 2026-05-05 14:57 | 51.83894 | 5.40132 | 141 ft | 154 kts | 221° |
| 2026-05-05 14:58 | 51.83109 | 5.38923 | 86 ft | 158 kts | 222° |
| 2026-05-05 14:58 | 51.82240 | 5.37870 | 113 ft | 156 kts | 204° |
| 2026-05-05 14:58 | 51.81257 | 5.37124 | 115 ft | 155 kts | 205° |
| 2026-05-05 14:58 | 51.80461 | 5.35993 | 130 ft | 152 kts | 234° |
| 2026-05-05 14:59 | 51.79721 | 5.35695 | 310 ft | 128 kts | 129° |
| 2026-05-05 14:59 | 51.79104 | 5.36887 | 99 ft | 137 kts | 167° |
| 2026-05-05 14:59 | 51.78209 | 5.36376 | 63 ft | 144 kts | 191° |
| 2026-05-05 14:59 | 51.77210 | 5.36038 | 84 ft | 147 kts | 181° |
| 2026-05-05 15:00 | 51.76179 | 5.35963 | 110 ft | 148 kts | 176° |
| 2026-05-05 15:00 | 51.75581 | 5.35512 | 142 ft | 143 kts | 230° |
| 2026-05-05 15:00 | 51.75041 | 5.33528 | 141 ft | 148 kts | 243° |
| 2026-05-05 15:00 | 51.74623 | 5.31985 | 103 ft | 152 kts | 242° |
| 2026-05-05 15:01 | 51.73969 | 5.30634 | 136 ft | 151 kts | 232° |
| 2026-05-05 15:01 | 51.73750 | 5.29130 | 117 ft | 140 kts | 290° |
| 2026-05-05 15:01 | 51.74003 | 5.27686 | 262 ft | 139 kts | 270° |
| 2026-05-05 15:01 | 51.73770 | 5.26138 | 224 ft | 151 kts | 233° |
| 2026-05-05 15:02 | 51.73377 | 5.24631 | 190 ft | 140 kts | 288° |
| 2026-05-05 15:02 | 51.73991 | 5.23477 | 184 ft | 138 kts | 308° |
| 2026-05-05 15:02 | 51.74341 | 5.21956 | 101 ft | 148 kts | 284° |
| 2026-05-05 15:02 | 51.74093 | 5.20349 | 71 ft | 153 kts | 256° |
| 2026-05-05 15:03 | 51.74146 | 5.18721 | 71 ft | 143 kts | 289° |
| 2026-05-05 15:03 | 51.74301 | 5.17119 | 75 ft | 147 kts | 274° |
| 2026-05-05 15:03 | 51.74152 | 5.15516 | 157 ft | 145 kts | 257° |
| 2026-05-05 15:03 | 51.73989 | 5.13889 | 123 ft | 148 kts | 259° |
| 2026-05-05 15:04 | 51.73688 | 5.12308 | 122 ft | 148 kts | 255° |
| 2026-05-05 15:04 | 51.73309 | 5.10754 | 154 ft | 149 kts | 243° |
| 2026-05-05 15:04 | 51.72775 | 5.09294 | 109 ft | 154 kts | 236° |
| 2026-05-05 15:04 | 51.72120 | 5.07941 | 120 ft | 153 kts | 231° |
| 2026-05-05 15:05 | 51.71052 | 5.05396 | 631 ft | 128 kts | 249° |
| 2026-05-05 15:05 | 51.70890 | 5.03901 | 588 ft | 147 kts | 262° |
| 2026-05-05 15:05 | 51.70437 | 5.02564 | 1125 ft | 130 kts | 216° |
| 2026-05-05 15:06 | 51.69583 | 5.01906 | 1319 ft | 143 kts | 208° |
| 2026-05-05 15:06 | 51.68741 | 5.00901 | 1282 ft | 157 kts | 218° |
| 2026-05-05 15:06 | 51.67804 | 4.99946 | 1316 ft | 164 kts | 201° |
| 2026-05-05 15:06 | 51.66735 | 4.99139 | 1202 ft | 173 kts | 201° |
| 2026-05-05 15:07 | 51.65604 | 4.98327 | 966 ft | 179 kts | 199° |
| 2026-05-05 15:07 | 51.64432 | 4.97748 | 881 ft | 171 kts | 185° |
| 2026-05-05 15:07 | 51.63298 | 4.97490 | 1015 ft | 155 kts | 181° |
| 2026-05-05 15:07 | 51.62265 | 4.97294 | 1199 ft | 147 kts | 184° |
| 2026-05-05 15:08 | 51.61244 | 4.96990 | 1297 ft | 157 kts | 188° |
| 2026-05-05 15:08 | 51.60153 | 4.96454 | 1251 ft | 174 kts | 200° |
| 2026-05-05 15:08 | 51.59100 | 4.95413 | 1240 ft | 173 kts | 212° |
| 2026-05-05 15:08 | 51.58175 | 4.94500 | 1008 ft | 141 kts | 198° |
| 2026-05-05 15:09 | 51.57321 | 4.94051 | 705 ft | 110 kts | 192° |
| 2026-05-05 15:09 | 51.56716 | 4.93822 | 413 ft | 69 kts | 142° |
| 2026-05-05 15:09 | 51.56611 | 4.94294 | 108 ft | 25 kts | 93° |
| 2026-05-05 15:09 | 51.56591 | 4.94432 | 53 ft | 7 kts | 99° |
| 2026-05-05 15:10 | 51.56587 | 4.94470 | 41 ft | 3 kts | 93° |
| 2026-05-05 15:10 | 51.56595 | 4.94505 | 41 ft | 4 kts | 47° |
| 2026-05-05 15:10 | 51.56612 | 4.94528 | 41 ft | 3 kts | 21° |
| 2026-05-05 15:10 | 51.56632 | 4.94535 | 41 ft | 3 kts | 354° |
| 2026-05-05 15:11 | 51.56652 | 4.94531 | 41 ft | 3 kts | 346° |
| 2026-05-05 15:11 | 51.56691 | 4.94518 | 41 ft | 8 kts | 351° |
| 2026-05-05 15:11 | 51.56727 | 4.94525 | 41 ft | 4 kts | 54° |
| 2026-05-05 15:11 | 51.56750 | 4.94550 | 41 ft | 4 kts | 11° |
| 2026-05-05 15:12 | 51.56782 | 4.94561 | 41 ft | 4 kts | 23° |
| 2026-05-05 15:12 | 51.56791 | 4.94605 | 40 ft | 5 kts | 103° |
| 2026-05-05 15:12 | 51.56785 | 4.94650 | 40 ft | 4 kts | 100° |
| 2026-05-05 15:12 | 51.56775 | 4.94678 | 41 ft | 2 kts | 186° |
| 2026-05-05 15:13 | 51.56755 | 4.94672 | 40 ft | 3 kts | 189° |
| 2026-05-05 15:13 | 51.56754 | 4.94672 | 40 ft | 0 kts | 189° |